createdAt,value
2022-12-19T00:00:38.391Z,103686.22
2022-12-19T00:03:40.595Z,103647.41
2022-12-19T00:06:43.897Z,103658.22
2022-12-19T00:09:46.441Z,103677.94
2022-12-19T00:12:48.630Z,103673.91
2022-12-19T00:15:52.358Z,103665.72
2022-12-19T00:18:58.873Z,103690.03
2022-12-19T00:22:01.179Z,103681.69
2022-12-19T00:25:03.479Z,103680.56
2022-12-19T00:28:06.695Z,103685.72
2022-12-19T00:31:09.348Z,103686.41
2022-12-19T00:34:13.208Z,103667.69
2022-12-19T00:37:15.447Z,103695.78
2022-12-19T00:40:19.628Z,103673.13
2022-12-19T00:43:21.792Z,103687.09
2022-12-19T00:46:26.532Z,103688.75
2022-12-19T00:49:28.699Z,103692.25
2022-12-19T00:52:31.416Z,103685.44
2022-12-19T00:55:38.530Z,103687.16
2022-12-19T00:58:46.866Z,103695.38
2022-12-19T01:01:49.830Z,103690.81
2022-12-19T01:04:53.462Z,103689.44
2022-12-19T01:07:56.009Z,103679.84
2022-12-19T01:10:59.013Z,103697.84
2022-12-19T01:14:01.113Z,103694.78
2022-12-19T01:17:03.270Z,103679.53
2022-12-19T01:20:06.137Z,103688.78
2022-12-19T01:23:11.520Z,103676.63
2022-12-19T01:26:14.252Z,103674.56
2022-12-19T01:29:17.027Z,103677.47
2022-12-19T01:32:19.288Z,103652.47
2022-12-19T01:35:22.343Z,103638.78
2022-12-19T01:38:26.292Z,103662.53
2022-12-19T01:41:28.769Z,103672.78
2022-12-19T01:44:31.835Z,103659.00
2022-12-19T01:47:57.157Z,103690.88
2022-12-19T01:51:05.639Z,103678.56
2022-12-19T01:54:12.223Z,103661.69
2022-12-19T01:57:18.430Z,103682.63
2022-12-19T02:00:20.926Z,103676.31
2022-12-19T02:03:29.337Z,103663.56
2022-12-19T02:06:35.153Z,103673.47
2022-12-19T02:09:37.593Z,103689.91
2022-12-19T02:12:44.592Z,103682.44
2022-12-19T02:16:30.125Z,103694.50
2022-12-19T02:20:07.034Z,103694.50
2022-12-19T02:23:28.824Z,103682.13
2022-12-19T02:27:25.452Z,103690.06
2022-12-19T02:30:49.795Z,103677.59
2022-12-19T02:34:15.021Z,103672.25
2022-12-19T02:37:53.990Z,103676.06
2022-12-19T02:41:03.900Z,103694.72
2022-12-19T02:44:07.057Z,103679.75
2022-12-19T02:47:10.606Z,103677.25
2022-12-19T02:50:13.931Z,103678.56
2022-12-19T02:53:17.120Z,103677.69
2022-12-19T02:56:36.834Z,103700.50
2022-12-19T03:00:04.135Z,103702.66
2022-12-19T03:03:38.452Z,103706.41
2022-12-19T03:07:09.198Z,103701.88
2022-12-19T03:10:24.153Z,103693.91
2022-12-19T03:13:46.493Z,103704.56
2022-12-19T03:16:49.051Z,103703.75
2022-12-19T03:19:51.215Z,103694.19
2022-12-19T03:22:53.886Z,103689.75
2022-12-19T03:26:01.852Z,103696.41
2022-12-19T03:29:09.140Z,103696.06
2022-12-19T03:32:14.591Z,103714.16
2022-12-19T03:35:24.782Z,103722.13
2022-12-19T03:38:28.947Z,103704.34
2022-12-19T03:41:50.442Z,103698.69
2022-12-19T03:44:55.807Z,103692.47
2022-12-19T03:48:04.419Z,103689.66
2022-12-19T03:51:37.260Z,103741.75
2022-12-19T03:54:47.567Z,103732.00
2022-12-19T03:57:57.291Z,103743.47
2022-12-19T04:01:01.165Z,103734.94
2022-12-19T04:04:06.222Z,103733.13
2022-12-19T04:07:09.161Z,103733.28
2022-12-19T04:10:15.564Z,103765.25
2022-12-19T04:13:22.995Z,103770.09
2022-12-19T04:16:48.436Z,103745.00
2022-12-19T04:20:12.507Z,103752.06
2022-12-19T04:23:21.366Z,103760.41
2022-12-19T04:26:24.951Z,103771.69
2022-12-19T04:29:29.281Z,103744.47
2022-12-19T04:32:35.391Z,103744.97
2022-12-19T04:35:38.297Z,103755.84
2022-12-19T04:38:42.874Z,103744.31
2022-12-19T04:41:44.938Z,103759.06
2022-12-19T04:44:47.487Z,103777.44
2022-12-19T04:47:49.623Z,103763.19
2022-12-19T04:50:52.096Z,103769.84
2022-12-19T04:53:54.269Z,103772.22
2022-12-19T04:56:57.150Z,103759.09
2022-12-19T04:59:59.220Z,103789.41
2022-12-19T05:03:01.559Z,103783.16
2022-12-19T05:06:12.490Z,103800.94
2022-12-19T05:09:17.993Z,103810.31
2022-12-19T05:12:20.617Z,103768.03
2022-12-19T05:15:22.752Z,103780.63
2022-12-19T05:18:25.490Z,103805.53
2022-12-19T05:21:27.718Z,103812.78
2022-12-19T05:24:29.942Z,103812.47
2022-12-19T05:27:32.376Z,103817.59
2022-12-19T05:30:35.162Z,103807.91
2022-12-19T05:33:38.378Z,103806.78
2022-12-19T05:36:41.044Z,103830.84
2022-12-19T05:39:43.209Z,103809.38
2022-12-19T05:42:45.167Z,103818.59
2022-12-19T05:45:47.341Z,103818.88
2022-12-19T05:48:49.826Z,103829.16
2022-12-19T05:51:52.051Z,103815.25
2022-12-19T05:54:54.068Z,103812.22
2022-12-19T05:57:58.499Z,103831.41
2022-12-19T06:01:28.059Z,103826.59
2022-12-19T06:04:30.719Z,103839.78
2022-12-19T06:07:32.845Z,103854.59
2022-12-19T06:10:34.866Z,103845.53
2022-12-19T06:13:37.471Z,103853.94
2022-12-19T06:16:39.574Z,103831.78
2022-12-19T06:19:41.871Z,103846.31
2022-12-19T06:22:44.370Z,103855.00
2022-12-19T06:25:47.264Z,103853.00
2022-12-19T06:28:50.987Z,103836.53
2022-12-19T06:31:53.102Z,103822.53
2022-12-19T06:35:04.138Z,103852.69
2022-12-19T06:38:09.087Z,103853.34
2022-12-19T06:41:32.387Z,103846.16
2022-12-19T06:44:35.084Z,103863.09
2022-12-19T06:47:37.167Z,103863.88
2022-12-19T06:50:39.341Z,103856.47
2022-12-19T06:54:06.841Z,103871.38
2022-12-19T06:57:13.711Z,103903.75
2022-12-19T07:00:18.135Z,103905.22
2022-12-19T07:03:24.518Z,103890.47
2022-12-19T07:06:26.834Z,103892.25
2022-12-19T07:09:30.818Z,103885.53
2022-12-19T07:12:33.107Z,103873.91
2022-12-19T07:15:37.013Z,103898.66
2022-12-19T07:18:41.280Z,103904.09
2022-12-19T07:21:43.877Z,103908.31
2022-12-19T07:24:46.345Z,103910.28
2022-12-19T07:27:50.295Z,103913.66
2022-12-19T07:30:52.587Z,103915.38
2022-12-19T07:33:55.297Z,103907.94
2022-12-19T07:36:57.503Z,103911.72
2022-12-19T07:39:59.739Z,103912.00
2022-12-19T07:43:03.716Z,103919.91
2022-12-19T07:46:09.096Z,103935.22
2022-12-19T07:49:11.289Z,103926.94
2022-12-19T07:52:13.530Z,103930.84
2022-12-19T07:55:15.760Z,103942.34
2022-12-19T07:58:18.511Z,103940.66
2022-12-19T08:01:20.791Z,103924.81
2022-12-19T08:04:23.048Z,103944.09
2022-12-19T08:07:25.175Z,103908.44
2022-12-19T08:10:27.223Z,103944.69
2022-12-19T08:13:35.513Z,103938.44
2022-12-19T08:17:11.103Z,103932.38
2022-12-19T08:20:02.120Z,103940.66
2022-12-19T08:23:04.753Z,103955.75
2022-12-19T08:26:10.940Z,103945.16
2022-12-19T08:29:13.366Z,103930.69
2022-12-19T08:32:20.774Z,103932.94
2022-12-19T08:35:23.487Z,103951.81
2022-12-19T08:38:25.500Z,103944.28
2022-12-19T08:41:27.518Z,103923.16
2022-12-19T08:44:30.905Z,103943.63
2022-12-19T08:47:32.914Z,103942.06
2022-12-19T08:50:36.438Z,103922.47
2022-12-19T08:53:42.499Z,103932.34
2022-12-19T08:56:46.745Z,103931.44
2022-12-19T08:59:49.333Z,103930.56
2022-12-19T09:02:52.893Z,103919.00
2022-12-19T09:06:07.889Z,103911.66
2022-12-19T09:09:11.240Z,103933.25
2022-12-19T09:12:15.148Z,103934.44
2022-12-19T09:15:17.332Z,103899.28
2022-12-19T09:18:19.631Z,103914.50
2022-12-19T09:21:29.453Z,103888.91
2022-12-19T09:24:31.716Z,103890.44
2022-12-19T09:27:47.696Z,103902.16
2022-12-19T09:31:02.744Z,103890.69
2022-12-19T09:34:06.563Z,103903.88
2022-12-19T09:37:16.392Z,103899.13
2022-12-19T09:40:21.131Z,103882.19
2022-12-19T09:44:01.998Z,103891.66
2022-12-19T09:47:20.012Z,103879.03
2022-12-19T09:50:43.620Z,103880.56
2022-12-19T09:53:56.859Z,103884.31
2022-12-19T09:57:04.366Z,103866.97
2022-12-19T10:00:29.076Z,103868.31
2022-12-19T10:04:13.349Z,103880.84
2022-12-19T10:07:53.002Z,103876.88
2022-12-19T10:12:39.408Z,103887.44
2022-12-19T10:14:44.021Z,103873.97
2022-12-19T10:18:17.523Z,103886.09
2022-12-19T10:21:50.654Z,103864.38
2022-12-19T10:25:09.010Z,103870.22
2022-12-19T10:28:11.756Z,103881.63
2022-12-19T10:31:28.058Z,103872.34
2022-12-19T10:34:41.224Z,103849.78
2022-12-19T10:37:51.130Z,103856.19
2022-12-19T10:41:09.367Z,103864.28
2022-12-19T10:44:13.484Z,103850.72
2022-12-19T10:47:26.483Z,103857.00
2022-12-19T10:50:31.004Z,103822.72
2022-12-19T10:53:33.425Z,103849.88
2022-12-19T10:56:39.228Z,103845.75
2022-12-19T10:59:59.329Z,103845.47
2022-12-19T11:03:13.439Z,103852.06
2022-12-19T11:06:35.916Z,103842.41
2022-12-19T11:09:39.446Z,103837.81
2022-12-19T11:18:09.859Z,103827.09
2022-12-19T11:23:38.009Z,103828.97
2022-12-19T11:29:17.532Z,103835.03
2022-12-19T11:30:09.730Z,103832.78
2022-12-19T11:30:38.266Z,103834.44
2022-12-19T11:34:04.361Z,103825.41
2022-12-19T11:37:12.238Z,103834.09
2022-12-19T11:40:35.772Z,103828.81
2022-12-19T11:43:48.012Z,103829.09
2022-12-19T11:46:57.449Z,103831.53
2022-12-19T11:50:11.247Z,103826.63
2022-12-19T11:53:19.391Z,103816.22
2022-12-19T11:56:24.851Z,103796.09
2022-12-19T11:59:29.659Z,103815.34
2022-12-19T12:02:59.778Z,103823.38
2022-12-19T12:06:13.629Z,103814.78
2022-12-19T12:14:49.817Z,103827.63
2022-12-19T12:24:15.841Z,103822.94
2022-12-19T12:29:44.451Z,103825.00
2022-12-19T12:31:08.292Z,103825.84
2022-12-19T12:31:26.818Z,103823.59
2022-12-19T12:31:52.924Z,103808.44
2022-12-19T12:35:56.635Z,103809.84
2022-12-19T12:39:29.847Z,103803.44
2022-12-19T12:43:01.810Z,103821.47
2022-12-19T12:46:23.464Z,103808.34
2022-12-19T12:49:43.510Z,103811.00
2022-12-19T12:52:53.895Z,103803.59
2022-12-19T12:55:59.133Z,103802.63
2022-12-19T12:59:02.137Z,103812.47
2022-12-19T13:02:17.061Z,103796.38
2022-12-19T13:05:41.063Z,103823.03
2022-12-19T13:08:48.579Z,103803.03
2022-12-19T13:12:19.856Z,103803.16
2022-12-19T13:15:29.026Z,103808.28
2022-12-19T13:18:34.425Z,103809.72
2022-12-19T13:22:03.523Z,103811.16
2022-12-19T13:25:28.634Z,103795.41
2022-12-19T13:28:34.611Z,103796.41
2022-12-19T13:31:36.792Z,103794.00
2022-12-19T13:34:43.525Z,103799.72
2022-12-19T13:39:49.008Z,103801.31
2022-12-19T13:41:48.332Z,103762.81
2022-12-19T13:44:52.408Z,103806.50
2022-12-19T13:47:57.858Z,103806.16
2022-12-19T13:51:11.805Z,103799.38
2022-12-19T13:54:27.046Z,103768.81
2022-12-19T13:57:32.196Z,103785.72
2022-12-19T14:00:42.090Z,103787.72
2022-12-19T14:03:47.608Z,103788.22
2022-12-19T14:06:57.050Z,103788.34
2022-12-19T14:11:28.592Z,103790.50
2022-12-19T14:13:49.926Z,103786.94
2022-12-19T14:17:08.752Z,103787.28
2022-12-19T14:22:01.987Z,103769.25
2022-12-19T14:23:45.936Z,103780.94
2022-12-19T14:28:26.981Z,103772.78
2022-12-19T14:30:32.425Z,103760.16
2022-12-19T14:34:18.484Z,103773.00
2022-12-19T14:39:22.228Z,103766.56
2022-12-19T14:41:07.863Z,103763.38
2022-12-19T14:52:08.042Z,103769.00
2022-12-19T14:52:08.329Z,103777.03
2022-12-19T14:54:28.275Z,103782.56
2022-12-19T14:58:55.765Z,103773.41
2022-12-19T15:01:35.272Z,103768.03
2022-12-19T15:04:52.946Z,103779.16
2022-12-19T15:07:59.336Z,103773.25
2022-12-19T15:11:45.615Z,103768.50
2022-12-19T15:14:59.016Z,103775.50
2022-12-19T15:18:15.390Z,103793.84
2022-12-19T15:21:19.072Z,103771.97
2022-12-19T15:24:21.491Z,103771.84
2022-12-19T15:27:23.656Z,103786.53
2022-12-19T15:30:27.305Z,103759.75
2022-12-19T15:33:29.395Z,103780.38
2022-12-19T15:36:31.396Z,103761.94
2022-12-19T15:39:33.988Z,103789.50
2022-12-19T15:42:37.547Z,103770.59
2022-12-19T15:45:40.972Z,103770.03
2022-12-19T15:48:46.552Z,103760.53
2022-12-19T15:51:50.637Z,103749.81
2022-12-19T15:54:52.863Z,103780.66
2022-12-19T15:58:01.723Z,103778.44
2022-12-19T16:01:04.973Z,103772.25
2022-12-19T16:04:13.640Z,103767.28
2022-12-19T16:07:18.172Z,103766.91
2022-12-19T16:10:20.247Z,103771.16
2022-12-19T16:13:27.298Z,103761.53
2022-12-19T16:16:30.044Z,103760.16
2022-12-19T16:19:34.063Z,103775.03
2022-12-19T16:22:38.366Z,103757.53
2022-12-19T16:25:49.737Z,103782.84
2022-12-19T16:28:52.427Z,103783.31
2022-12-19T16:31:55.592Z,103744.75
2022-12-19T16:34:57.816Z,103766.13
2022-12-19T16:38:00.829Z,103775.78
2022-12-19T16:41:03.056Z,103765.50
2022-12-19T16:44:15.654Z,103755.50
2022-12-19T16:47:20.969Z,103776.94
2022-12-19T16:50:25.536Z,103772.97
2022-12-19T16:53:28.011Z,103779.09
2022-12-19T16:56:40.776Z,103764.81
2022-12-19T16:59:42.871Z,103769.44
2022-12-19T17:02:45.113Z,103772.38
2022-12-19T17:05:48.601Z,103763.00
2022-12-19T17:08:51.782Z,103768.69
2022-12-19T17:11:58.415Z,103782.56
2022-12-19T17:15:08.682Z,103770.41
2022-12-19T17:18:18.536Z,103766.53
2022-12-19T17:21:22.726Z,103772.72
2022-12-19T17:24:25.305Z,103772.28
2022-12-19T17:27:27.707Z,103768.91
2022-12-19T17:30:29.823Z,103784.66
2022-12-19T17:33:38.553Z,103788.13
2022-12-19T17:36:40.707Z,103760.16
2022-12-19T17:39:43.098Z,103780.25
2022-12-19T17:42:45.266Z,103772.38
2022-12-19T17:45:47.487Z,103766.72
2022-12-19T17:48:51.810Z,103780.75
2022-12-19T17:51:54.843Z,103754.88
2022-12-19T17:54:56.945Z,103785.47
2022-12-19T17:58:00.666Z,103744.63
2022-12-19T18:01:02.781Z,103779.25
2022-12-19T18:04:05.106Z,103764.28
2022-12-19T18:07:15.771Z,103766.84
2022-12-19T18:10:23.893Z,103768.03
2022-12-19T18:13:29.286Z,103745.81
2022-12-19T18:16:31.417Z,103750.00
2022-12-19T18:19:34.792Z,103743.28
2022-12-19T18:22:41.162Z,103722.34
2022-12-19T18:25:45.645Z,103732.28
2022-12-19T18:28:48.111Z,103741.53
2022-12-19T18:31:51.458Z,103747.13
2022-12-19T18:34:54.944Z,103754.56
2022-12-19T18:38:00.208Z,103746.97
2022-12-19T18:41:02.336Z,103761.41
2022-12-19T18:44:07.041Z,103766.88
2022-12-19T18:47:20.316Z,103750.44
2022-12-19T18:50:24.327Z,103754.16
2022-12-19T18:53:35.699Z,103736.94
2022-12-19T18:56:40.774Z,103740.50
2022-12-19T18:59:42.900Z,103751.13
2022-12-19T19:02:50.458Z,103738.75
2022-12-19T19:05:52.601Z,103750.44
2022-12-19T19:08:57.103Z,103734.31
2022-12-19T19:12:17.852Z,103727.06
2022-12-19T19:15:28.792Z,103745.56
2022-12-19T19:18:37.799Z,103737.03
2022-12-19T19:21:40.041Z,103722.09
2022-12-19T19:24:52.319Z,103718.44
2022-12-19T19:28:00.280Z,103735.75
2022-12-19T19:31:02.779Z,103724.22
2022-12-19T19:34:29.025Z,103715.72
2022-12-19T19:37:31.336Z,103679.38
2022-12-19T19:40:35.809Z,103712.06
2022-12-19T19:43:38.092Z,103716.56
2022-12-19T19:46:40.375Z,103712.47
2022-12-19T19:49:42.526Z,103680.00
2022-12-19T19:52:44.781Z,103702.44
2022-12-19T19:56:00.917Z,103699.66
2022-12-19T19:59:04.244Z,103697.69
2022-12-19T20:02:08.705Z,103697.84
2022-12-19T20:05:11.677Z,103689.63
2022-12-19T20:08:14.172Z,103675.25
2022-12-19T20:11:16.603Z,103655.84
2022-12-19T20:14:19.619Z,103674.19
2022-12-19T20:17:23.342Z,103664.88
2022-12-19T20:20:25.682Z,103685.72
2022-12-19T20:23:29.282Z,103678.31
2022-12-19T20:26:32.788Z,103666.19
2022-12-19T20:29:34.938Z,103681.66
2022-12-19T20:32:37.224Z,103696.63
2022-12-19T20:35:39.338Z,103673.53
2022-12-19T20:38:41.663Z,103673.25
2022-12-19T20:41:43.790Z,103676.44
2022-12-19T20:44:45.915Z,103669.50
2022-12-19T20:47:48.180Z,103689.06
2022-12-19T20:50:56.042Z,103674.78
2022-12-19T20:53:58.119Z,103666.88
2022-12-19T20:57:00.733Z,103676.00
2022-12-19T21:00:04.620Z,103654.69
2022-12-19T21:06:29.356Z,103673.13
2022-12-19T21:09:32.834Z,103653.56
2022-12-19T21:12:35.999Z,103619.53
2022-12-19T21:15:38.298Z,103656.16
2022-12-19T21:18:42.289Z,103653.56
2022-12-19T21:21:45.821Z,103644.81
2022-12-19T21:24:47.940Z,103644.66
2022-12-19T21:27:49.937Z,103637.38
2022-12-19T21:31:04.519Z,103646.53
2022-12-19T21:34:07.052Z,103630.16
2022-12-19T21:37:09.320Z,103654.88
2022-12-19T21:40:14.167Z,103642.19
2022-12-19T21:43:16.530Z,103645.50
2022-12-19T21:46:22.195Z,103634.19
2022-12-19T21:49:24.308Z,103621.06
2022-12-19T21:52:26.384Z,103615.41
2022-12-19T21:55:28.468Z,103627.56
2022-12-19T21:58:31.083Z,103593.56
2022-12-19T22:01:34.312Z,103619.09
2022-12-19T22:04:36.450Z,103599.78
2022-12-19T22:07:38.556Z,103602.53
2022-12-19T22:10:40.847Z,103600.00
2022-12-19T22:13:43.380Z,103594.59
2022-12-19T22:16:45.622Z,103581.06
2022-12-19T22:19:47.975Z,103583.75
2022-12-19T22:22:50.112Z,103601.44
2022-12-19T22:26:20.347Z,103591.59
2022-12-19T22:29:23.185Z,103593.81
2022-12-19T22:32:27.475Z,103586.44
2022-12-19T22:35:29.675Z,103584.06
2022-12-19T22:38:32.133Z,103570.34
2022-12-19T22:41:35.602Z,103581.25
2022-12-19T22:44:38.043Z,103564.06
2022-12-19T22:47:43.330Z,103559.38
2022-12-19T22:50:47.235Z,103544.41
2022-12-19T22:53:49.324Z,103525.31
2022-12-19T22:56:52.315Z,103533.25
2022-12-19T22:59:54.502Z,103523.16
2022-12-19T23:02:57.382Z,103514.41
2022-12-19T23:06:01.529Z,103528.41
2022-12-19T23:09:05.957Z,103526.47
2022-12-19T23:12:09.170Z,103524.81
2022-12-19T23:15:13.067Z,103521.75
2022-12-19T23:18:15.698Z,103504.00
2022-12-19T23:21:22.241Z,103509.28
2022-12-19T23:24:24.520Z,103479.84
2022-12-19T23:27:28.404Z,103494.28
2022-12-19T23:30:30.613Z,103491.59
2022-12-19T23:33:36.124Z,103489.13
2022-12-19T23:37:09.691Z,103496.72
2022-12-19T23:40:02.320Z,103478.72
2022-12-19T23:43:04.415Z,103477.44
2022-12-19T23:46:26.430Z,103500.19
2022-12-19T23:49:28.717Z,103491.38
2022-12-19T23:52:30.797Z,103500.53
2022-12-19T23:55:33.079Z,103505.97
2022-12-19T23:58:35.917Z,103480.50
